Time;durP1;ratioP1;P1;durP2;ratioP2;P2;SDS_P1;SDS_P2;PMS_P1;PMS_P2;Temp;Humidity;BMP_temperature;BMP_pressure;BME280_temperature;BME280_humidity;BME280_pressure;Samples;Min_cycle;Max_cycle;Signal;HPM_P1;HPM_P2
2024/04/07 00:01:12;;;;;;;1.47;0.90;;;21.00;76.00;;;;;;4890365;29;20694;-81
2024/04/07 00:03:38;;;;;;;1.43;0.90;;;21.00;75.70;;;;;;4897107;29;20477;-80
2024/04/07 00:06:06;;;;;;;1.47;0.90;;;21.00;76.20;;;;;;4894517;29;20496;-80
2024/04/07 00:08:32;;;;;;;1.47;0.90;;;20.90;76.30;;;;;;4898598;29;20576;-81
2024/04/07 00:11:03;;;;;;;1.40;0.90;;;20.90;76.30;;;;;;4888066;29;20568;-81
2024/04/07 00:13:29;;;;;;;1.43;0.90;;;20.90;76.40;;;;;;4893186;29;20210;-81
2024/04/07 00:15:56;;;;;;;1.43;0.90;;;20.90;76.50;;;;;;4887330;29;20497;-80
2024/04/07 00:18:23;;;;;;;1.40;0.80;;;20.80;76.60;;;;;;4893878;29;20973;-81
2024/04/07 00:21:00;;;;;;;1.50;1.00;;;20.80;76.60;;;;;;4886887;29;20669;-81
2024/04/07 00:23:31;;;;;;;1.43;0.90;;;20.70;76.70;;;;;;4892989;29;20968;-80
2024/04/07 00:25:58;;;;;;;1.47;0.97;;;20.70;76.60;;;;;;4889246;29;20489;-80
2024/04/07 00:28:25;;;;;;;1.50;0.90;;;20.70;77.20;;;;;;4897206;29;20474;-79
2024/04/07 00:30:52;;;;;;;1.43;0.90;;;20.60;77.80;;;;;;4886643;29;20465;-79
2024/04/07 00:33:18;;;;;;;1.43;0.90;;;20.60;77.60;;;;;;4896286;29;20911;-79
2024/04/07 00:35:54;;;;;;;1.43;0.90;;;20.50;77.60;;;;;;4893831;29;20489;-80
2024/04/07 00:38:20;;;;;;;1.40;0.90;;;20.50;78.00;;;;;;4866379;29;20564;-80
2024/04/07 00:40:53;;;;;;;1.43;0.90;;;20.50;78.00;;;;;;4885018;29;20557;-80
2024/04/07 00:43:19;;;;;;;1.47;0.90;;;20.40;77.90;;;;;;4892108;29;20236;-79
2024/04/07 00:45:46;;;;;;;1.43;0.90;;;20.40;78.30;;;;;;4892505;29;20510;-79
2024/04/07 00:48:11;;;;;;;1.43;0.90;;;20.40;78.40;;;;;;4895078;29;20484;-80
2024/04/07 00:50:38;;;;;;;1.40;0.90;;;20.30;78.70;;;;;;4894658;29;20469;-79
2024/04/07 00:53:05;;;;;;;1.50;0.90;;;20.20;79.00;;;;;;4887110;29;20237;-80
2024/04/07 00:55:32;;;;;;;1.50;0.90;;;20.20;79.40;;;;;;4891425;29;20899;-80
2024/04/07 00:57:59;;;;;;;1.43;0.90;;;20.10;79.70;;;;;;4885948;29;20493;-80
2024/04/07 01:00:27;;;;;;;1.43;0.90;;;20.10;80.00;;;;;;4899545;29;21007;-79
2024/04/07 01:02:54;;;;;;;1.40;0.90;;;20.00;80.20;;;;;;4883254;29;20485;-79
2024/04/07 01:05:21;;;;;;;1.43;0.90;;;20.00;80.50;;;;;;4897778;29;20489;-80
2024/04/07 01:07:48;;;;;;;1.40;0.90;;;19.90;80.70;;;;;;4884641;29;21136;-80
2024/04/07 01:10:14;;;;;;;1.50;0.90;;;19.90;81.10;;;;;;4894467;29;21028;-79
2024/04/07 01:12:51;;;;;;;1.50;0.93;;;19.80;81.10;;;;;;4885470;29;20517;-79
2024/04/07 01:15:19;;;;;;;1.43;0.90;;;19.80;81.50;;;;;;4892456;29;20553;-79
2024/04/07 01:17:45;;;;;;;1.40;0.90;;;19.70;81.50;;;;;;4887933;29;20488;-80
2024/04/07 01:20:13;;;;;;;1.50;0.90;;;19.70;81.70;;;;;;4932506;23;20500;-79
2024/04/07 01:22:38;;;;;;;1.50;0.90;;;19.60;81.70;;;;;;4922215;29;20472;-79
2024/04/07 01:25:07;;;;;;;1.47;0.90;;;19.60;82.10;;;;;;4933574;29;20482;-78
2024/04/07 01:27:32;;;;;;;1.47;0.90;;;19.60;82.50;;;;;;4911260;29;20240;-79
2024/04/07 01:29:59;;;;;;;1.47;0.90;;;19.60;82.30;;;;;;4921290;29;20496;-79
2024/04/07 01:32:25;;;;;;;1.83;1.73;;;19.50;82.30;;;;;;4903716;29;20390;-79
2024/04/07 01:34:52;;;;;;;1.47;0.90;;;19.50;82.80;;;;;;4915356;29;20472;-79
2024/04/07 01:37:17;;;;;;;1.50;0.90;;;19.50;82.50;;;;;;4904443;29;20229;-80
2024/04/07 01:39:44;;;;;;;1.43;0.90;;;19.40;82.80;;;;;;4914524;29;21188;-79
2024/04/07 01:42:11;;;;;;;1.43;0.90;;;19.40;82.70;;;;;;4905048;29;20229;-79
2024/04/07 01:44:38;;;;;;;1.47;1.00;;;19.40;82.80;;;;;;4913417;29;20476;-79
2024/04/07 01:47:04;;;;;;;1.50;1.00;;;19.40;82.90;;;;;;4908190;29;20484;-79
2024/04/07 01:49:31;;;;;;;1.50;1.00;;;19.30;83.20;;;;;;4915125;29;20921;-79
2024/04/07 01:51:56;;;;;;;1.50;0.90;;;19.30;83.10;;;;;;4900647;29;20239;-80
2024/04/07 01:54:23;;;;;;;1.47;0.90;;;19.30;82.80;;;;;;4912744;29;20472;-79
2024/04/07 01:56:49;;;;;;;1.50;0.90;;;19.30;83.10;;;;;;4897850;29;20228;-78
2024/04/07 01:59:17;;;;;;;1.50;1.00;;;19.30;83.30;;;;;;4914292;29;20486;-79
2024/04/07 02:01:43;;;;;;;1.50;0.90;;;19.30;83.40;;;;;;4902874;29;20220;-79
2024/04/07 02:04:09;;;;;;;1.50;0.93;;;19.30;83.70;;;;;;4917022;29;20479;-79
2024/04/07 02:06:35;;;;;;;1.50;1.00;;;19.30;83.80;;;;;;4904024;29;20247;-79
2024/04/07 02:09:04;;;;;;;1.50;1.00;;;19.20;83.80;;;;;;4914605;29;21007;-79
2024/04/07 02:11:29;;;;;;;1.47;0.90;;;19.20;83.70;;;;;;4902321;29;20233;-78
2024/04/07 02:13:56;;;;;;;1.50;0.90;;;19.20;83.90;;;;;;4913191;29;20496;-79
2024/04/07 02:16:24;;;;;;;1.47;0.90;;;19.20;84.40;;;;;;4902023;29;20232;-80
2024/04/07 02:18:51;;;;;;;1.50;0.90;;;19.20;84.40;;;;;;4914198;29;20468;-77
2024/04/07 02:21:20;;;;;;;1.47;0.90;;;19.20;85.00;;;;;;4903089;29;20487;-80
2024/04/07 02:23:54;;;;;;;1.43;0.90;;;19.20;85.50;;;;;;4913818;29;20833;-78
2024/04/07 02:26:21;;;;;;;1.50;0.90;;;19.20;85.00;;;;;;4903026;29;20548;-81
2024/04/07 02:28:47;;;;;;;1.47;0.90;;;19.30;85.70;;;;;;4913544;29;20468;-77
2024/04/07 02:31:14;;;;;;;1.47;0.90;;;19.20;86.30;;;;;;4905429;29;20519;-79
2024/04/07 02:33:41;;;;;;;2.17;1.97;;;19.20;86.40;;;;;;4918332;29;20216;-79
2024/04/07 02:36:08;;;;;;;1.50;0.90;;;19.20;87.00;;;;;;4906118;29;20492;-78
2024/04/07 02:38:34;;;;;;;1.50;0.90;;;19.20;87.30;;;;;;4913757;29;20843;-78
2024/04/07 02:41:01;;;;;;;1.50;0.93;;;19.20;87.40;;;;;;4904017;29;20475;-78
2024/04/07 02:43:26;;;;;;;1.43;0.90;;;19.20;88.00;;;;;;4913783;29;20217;-78
2024/04/07 02:48:37;;;;;;;1.50;0.97;;;19.10;90.00;;;;;;4914784;29;20215;-78
2024/04/07 02:51:06;;;;;;;1.50;1.00;;;19.10;90.40;;;;;;4905065;29;20489;-79
2024/04/07 02:53:33;;;;;;;1.43;0.90;;;19.10;91.20;;;;;;4911968;29;20567;-78
2024/04/07 02:56:07;;;;;;;1.50;0.90;;;19.00;91.90;;;;;;4902671;29;20475;-78
2024/04/07 02:58:34;;;;;;;1.50;0.90;;;19.00;92.70;;;;;;4914907;29;20531;-78
2024/04/07 03:01:02;;;;;;;1.47;0.90;;;19.00;92.90;;;;;;4906346;29;20475;-78
2024/04/07 03:03:29;;;;;;;1.47;1.00;;;19.00;93.20;;;;;;4915508;29;20967;-79
2024/04/07 03:05:55;;;;;;;1.43;0.90;;;18.90;93.60;;;;;;4902065;29;20476;-78
2024/04/07 03:08:23;;;;;;;1.47;0.90;;;18.90;93.60;;;;;;4914541;29;20934;-78
2024/04/07 03:10:55;;;;;;;1.47;0.90;;;18.90;94.30;;;;;;4905229;29;20611;-78
2024/04/07 03:13:22;;;;;;;1.47;1.00;;;18.80;94.60;;;;;;4914486;29;20504;-79
2024/04/07 03:15:48;;;;;;;1.47;0.90;;;18.80;94.90;;;;;;4903435;29;20979;-79
2024/04/07 03:18:14;;;;;;;1.47;0.90;;;18.80;94.80;;;;;;4917617;29;20475;-78
2024/04/07 03:20:41;;;;;;;1.50;0.90;;;18.70;95.50;;;;;;4913726;29;20256;-78
2024/04/07 03:23:07;;;;;;;1.47;0.90;;;18.70;95.80;;;;;;4905362;29;20496;-78
2024/04/07 03:25:34;;;;;;;1.47;0.90;;;18.70;96.30;;;;;;4916370;29;20805;-78
2024/04/07 03:28:01;;;;;;;1.50;1.00;;;18.60;96.30;;;;;;4909670;29;20512;-78
2024/04/07 03:30:27;;;;;;;1.47;0.90;;;18.60;97.20;;;;;;4917290;29;20497;-78
2024/04/07 03:32:54;;;;;;;1.50;0.90;;;18.60;97.00;;;;;;4907413;29;20480;-78
2024/04/07 03:35:19;;;;;;;1.50;0.90;;;18.50;96.70;;;;;;4919084;29;20209;-79
2024/04/07 03:37:46;;;;;;;1.50;0.90;;;18.50;97.40;;;;;;4910808;29;20475;-78
2024/04/07 03:40:13;;;;;;;1.43;0.90;;;18.50;97.40;;;;;;4918359;29;20225;-78
2024/04/07 03:42:42;;;;;;;1.50;1.00;;;18.50;97.70;;;;;;4908282;29;20484;-78
2024/04/07 03:45:09;;;;;;;2.50;2.30;;;18.50;97.70;;;;;;4917255;29;20964;-78
2024/04/07 03:47:36;;;;;;;1.47;0.90;;;18.50;97.90;;;;;;4908375;29;20493;-78
2024/04/07 03:50:03;;;;;;;1.47;0.90;;;18.40;97.90;;;;;;4918318;29;20496;-78
2024/04/07 03:52:30;;;;;;;1.43;0.90;;;18.40;98.10;;;;;;4910792;29;20540;-80
2024/04/07 03:54:56;;;;;;;1.43;0.90;;;18.40;98.20;;;;;;4916030;29;20465;-78
2024/04/07 03:57:23;;;;;;;1.40;0.90;;;18.40;98.20;;;;;;4907004;29;21040;-80
2024/04/07 03:59:50;;;;;;;1.47;0.97;;;18.40;98.20;;;;;;4923268;29;20237;-78
2024/04/07 04:02:21;;;;;;;1.47;0.90;;;18.30;98.20;;;;;;4908113;29;20544;-78
2024/04/07 04:04:55;;;;;;;1.43;0.90;;;18.30;98.20;;;;;;4915882;29;20465;-78
2024/04/07 04:07:23;;;;;;;1.43;0.90;;;18.30;98.20;;;;;;4906594;29;20486;-80
2024/04/07 04:09:51;;;;;;;1.50;0.93;;;18.30;98.20;;;;;;4922512;29;21059;-78
2024/04/07 04:12:19;;;;;;;1.47;0.90;;;18.20;98.20;;;;;;4907316;29;20491;-79
2024/04/07 04:14:44;;;;;;;1.40;0.90;;;18.20;98.20;;;;;;4915413;29;20501;-78
2024/04/07 04:17:14;;;;;;;1.50;1.00;;;18.20;98.20;;;;;;4910365;29;20481;-78
2024/04/07 04:19:40;;;;;;;1.40;0.90;;;18.20;98.20;;;;;;4915572;29;20250;-79
2024/04/07 04:22:07;;;;;;;1.43;0.90;;;18.10;98.20;;;;;;4902500;29;20533;-78
2024/04/07 04:24:34;;;;;;;1.40;0.90;;;18.10;98.20;;;;;;4912402;29;20472;-80
2024/04/07 04:27:01;;;;;;;1.40;0.90;;;18.10;98.20;;;;;;4908062;29;20532;-78
2024/04/07 04:29:27;;;;;;;1.43;0.90;;;18.10;98.20;;;;;;4916212;29;20552;-80
2024/04/07 04:31:55;;;;;;;1.47;0.90;;;18.10;98.20;;;;;;4907747;29;20992;-78
2024/04/07 04:34:22;;;;;;;1.50;0.90;;;18.10;98.20;;;;;;4914593;29;21120;-79
2024/04/07 04:36:50;;;;;;;1.50;1.00;;;18.10;98.20;;;;;;4906552;29;20857;-78
2024/04/07 04:39:15;;;;;;;1.50;0.90;;;18.00;98.20;;;;;;4917639;29;20511;-77
2024/04/07 04:41:45;;;;;;;1.43;0.90;;;18.00;98.20;;;;;;4909746;29;20671;-79
2024/04/07 04:44:11;;;;;;;1.43;1.00;;;18.00;98.20;;;;;;4921057;29;20643;-78
2024/04/07 04:46:40;;;;;;;1.50;1.00;;;17.90;98.20;;;;;;4909675;29;20479;-80
2024/04/07 04:49:06;;;;;;;1.50;1.00;;;17.90;98.20;;;;;;4912315;29;20491;-79
2024/04/07 04:51:37;;;;;;;1.50;0.90;;;17.80;98.20;;;;;;4907031;29;20667;-79
2024/04/07 04:54:04;;;;;;;1.43;0.90;;;17.80;98.20;;;;;;4916322;29;20476;-82
2024/04/07 04:56:31;;;;;;;1.50;0.90;;;17.80;98.20;;;;;;4912236;29;20519;-78
2024/04/07 04:58:57;;;;;;;1.47;0.90;;;17.70;98.20;;;;;;4921550;29;20484;-79
2024/04/07 05:01:25;;;;;;;1.40;0.90;;;17.70;98.20;;;;;;4908434;29;20484;-79
2024/04/07 05:03:51;;;;;;;1.50;0.97;;;17.70;98.20;;;;;;4912796;29;20480;-79
2024/04/07 05:06:19;;;;;;;1.40;1.00;;;17.70;98.20;;;;;;4911299;29;20607;-79
2024/04/07 05:08:47;;;;;;;1.50;0.90;;;17.60;98.20;;;;;;4916002;29;20472;-80
2024/04/07 05:11:20;;;;;;;1.47;0.90;;;17.60;98.20;;;;;;4904198;29;20523;-79
2024/04/07 05:13:46;;;;;;;1.50;0.90;;;17.60;98.20;;;;;;4906766;29;20857;-78
2024/04/07 05:16:14;;;;;;;1.50;0.90;;;17.60;98.20;;;;;;4907212;29;20487;-79
2024/04/07 05:18:40;;;;;;;1.50;1.00;;;17.60;98.20;;;;;;4915747;29;20241;-79
2024/04/07 05:21:08;;;;;;;1.50;1.00;;;17.60;98.20;;;;;;4907474;29;20931;-80
2024/04/07 05:23:35;;;;;;;1.50;0.90;;;17.60;98.20;;;;;;4914415;29;20555;-79
2024/04/07 05:26:11;;;;;;;1.50;0.93;;;17.60;98.20;;;;;;4905538;29;20477;-80
2024/04/07 05:28:37;;;;;;;1.50;1.00;;;17.50;98.20;;;;;;4917356;29;20469;-80
2024/04/07 05:31:04;;;;;;;1.47;0.97;;;17.60;98.20;;;;;;4907838;29;20500;-80
2024/04/07 05:33:31;;;;;;;1.50;0.90;;;17.50;98.20;;;;;;4910947;29;20212;-80
2024/04/07 05:36:01;;;;;;;1.47;0.90;;;17.50;98.20;;;;;;4905014;29;20471;-79
2024/04/07 05:38:26;;;;;;;1.50;0.90;;;17.50;98.20;;;;;;4916690;29;20491;-80
2024/04/07 05:41:05;;;;;;;1.43;0.90;;;17.40;98.20;;;;;;4906198;29;20488;-80
2024/04/07 05:43:33;;;;;;;1.40;0.97;;;17.40;98.20;;;;;;4908379;29;20224;-80
2024/04/07 05:46:03;;;;;;;1.47;0.90;;;17.40;98.20;;;;;;4906071;29;20480;-80
2024/04/07 05:48:29;;;;;;;1.43;0.90;;;17.40;98.20;;;;;;4914271;29;20682;-80
2024/04/07 05:50:56;;;;;;;1.47;0.90;;;17.40;98.20;;;;;;4906508;29;20524;-80
2024/04/07 05:53:22;;;;;;;1.40;0.90;;;17.40;98.20;;;;;;4915453;29;20469;-79
2024/04/07 05:55:55;;;;;;;1.43;1.00;;;17.40;98.20;;;;;;4906757;29;20483;-79
2024/04/07 05:58:22;;;;;;;1.50;0.90;;;17.40;98.20;;;;;;4911693;29;20213;-80
2024/04/07 06:00:55;;;;;;;1.47;1.00;;;17.40;98.20;;;;;;4904285;29;20480;-78
2024/04/07 06:03:42;;;;;;;1.43;0.90;;;17.40;98.20;;;;;;4915218;29;20460;-79
2024/04/07 06:06:09;;;;;;;1.43;0.90;;;17.40;98.20;;;;;;4902805;29;20474;-80
2024/04/07 06:08:37;;;;;;;1.47;0.90;;;17.40;98.20;;;;;;4913263;29;20856;-78
2024/04/07 06:11:08;;;;;;;1.43;0.90;;;17.40;98.20;;;;;;4905157;29;20516;-80
2024/04/07 06:16:25;;;;;;;1.50;0.90;;;17.40;98.20;;;;;;4904254;29;20596;-80
2024/04/07 06:18:55;;;;;;;1.60;1.30;;;17.40;98.20;;;;;;4907212;29;20461;-81
2024/04/07 06:21:22;;;;;;;1.40;0.90;;;17.40;98.20;;;;;;4900374;29;20763;-81
2024/04/07 06:23:53;;;;;;;1.47;0.90;;;17.50;98.20;;;;;;4906176;29;20480;-80
2024/04/07 06:26:30;;;;;;;1.47;0.90;;;17.50;98.20;;;;;;4900573;29;20557;-80
2024/04/07 06:28:56;;;;;;;1.43;0.90;;;17.60;98.20;;;;;;4917423;29;20482;-80
2024/04/07 06:31:27;;;;;;;1.40;0.90;;;17.60;98.20;;;;;;4905256;29;20484;-79
2024/04/07 06:33:54;;;;;;;1.50;1.10;;;17.60;98.20;;;;;;4915466;29;20379;-82
2024/04/07 06:36:20;;;;;;;1.50;1.00;;;17.70;98.20;;;;;;4902991;29;20476;-82
2024/04/07 06:38:54;;;;;;;1.50;1.00;;;17.70;98.20;;;;;;4916431;29;20469;-82
2024/04/07 06:41:21;;;;;;;1.50;1.00;;;17.80;98.20;;;;;;4906096;29;20480;-82
2024/04/07 06:43:47;;;;;;;1.47;0.90;;;17.90;98.20;;;;;;4915097;29;20484;-81
2024/04/07 06:46:14;;;;;;;1.47;0.90;;;18.00;98.20;;;;;;4905130;29;20481;-82
2024/04/07 06:48:41;;;;;;;1.47;0.90;;;18.10;98.20;;;;;;4914058;29;20230;-82
2024/04/07 06:51:08;;;;;;;1.43;0.90;;;18.20;98.20;;;;;;4903841;29;20474;-80
2024/04/07 06:53:34;;;;;;;1.43;0.90;;;18.30;98.20;;;;;;4914044;29;20976;-79
2024/04/07 06:56:01;;;;;;;1.43;0.90;;;18.30;98.20;;;;;;4905483;29;20475;-80
2024/04/07 06:58:30;;;;;;;1.43;0.90;;;18.40;98.20;;;;;;4913110;29;20244;-81
2024/04/07 07:00:57;;;;;;;1.47;0.90;;;18.50;98.20;;;;;;4908124;29;20855;-82
2024/04/07 07:03:23;;;;;;;1.50;0.90;;;18.60;98.20;;;;;;4916139;29;20655;-82
2024/04/07 07:05:51;;;;;;;1.43;0.93;;;18.70;98.20;;;;;;4906185;29;20587;-82
2024/04/07 07:08:18;;;;;;;1.47;0.90;;;18.70;98.20;;;;;;4920019;29;20213;-83
2024/04/07 07:11:07;;;;;;;1.43;1.00;;;18.70;98.20;;;;;;4918953;29;20492;-82
2024/04/07 07:13:45;;;;;;;1.50;1.00;;;18.70;98.20;;;;;;4888147;29;20512;-80
2024/04/07 07:16:13;;;;;;;1.47;0.90;;;18.60;98.20;;;;;;4902185;29;20490;-80
2024/04/07 07:19:00;;;;;;;1.50;0.90;;;18.50;98.20;;;;;;4916683;29;21017;-81
2024/04/07 07:21:28;;;;;;;1.50;0.90;;;18.40;98.20;;;;;;4903258;29;20503;-80
2024/04/07 07:23:54;;;;;;;1.43;0.90;;;18.40;98.20;;;;;;4918107;29;20479;-80
2024/04/07 07:26:21;;;;;;;1.50;1.00;;;18.40;98.20;;;;;;4910054;29;20504;-79
2024/04/07 07:31:19;;;;;;;1.47;0.90;;;18.50;98.20;;;;;;4924401;28;20717;-80
2024/04/07 07:33:45;;;;;;;1.50;0.90;;;18.50;98.20;;;;;;4941151;29;20464;-80
2024/04/07 07:36:12;;;;;;;1.47;0.90;;;18.50;98.20;;;;;;4930594;29;20475;-82
2024/04/07 07:38:39;;;;;;;1.47;0.90;;;18.50;98.20;;;;;;4938014;29;20299;-81
2024/04/07 07:41:06;;;;;;;1.47;0.90;;;18.50;98.20;;;;;;4927263;29;20555;-80
2024/04/07 07:43:32;;;;;;;1.50;0.90;;;18.50;98.20;;;;;;4937687;29;20511;-80
2024/04/07 07:45:59;;;;;;;1.43;0.90;;;18.40;98.20;;;;;;4925452;28;20467;-81
2024/04/07 07:48:25;;;;;;;1.47;0.90;;;18.40;98.20;;;;;;4939779;29;20208;-81
2024/04/07 07:50:51;;;;;;;1.50;1.00;;;18.40;98.20;;;;;;4929898;29;20506;-81
2024/04/07 07:53:18;;;;;;;1.50;1.00;;;18.50;98.20;;;;;;4935403;29;20208;-81
2024/04/07 07:55:47;;;;;;;1.43;0.90;;;18.50;98.20;;;;;;4933669;29;21054;-81
2024/04/07 07:58:12;;;;;;;1.47;0.90;;;18.50;98.20;;;;;;4921107;29;20490;-81
2024/04/07 08:00:39;;;;;;;1.43;0.90;;;18.60;98.20;;;;;;4939158;29;20574;-81
2024/04/07 08:03:05;;;;;;;1.50;1.10;;;18.60;98.20;;;;;;4926510;29;20234;-81
2024/04/07 08:05:32;;;;;;;1.50;0.90;;;18.60;98.20;;;;;;4934763;29;21053;-82
2024/04/07 08:07:58;;;;;;;1.47;0.90;;;18.60;98.20;;;;;;4929642;29;20899;-81
2024/04/07 08:10:26;;;;;;;1.50;1.00;;;18.60;98.20;;;;;;4932285;29;20499;-81
2024/04/07 08:12:53;;;;;;;1.50;0.90;;;18.70;98.20;;;;;;4929596;28;20255;-82
2024/04/07 08:15:20;;;;;;;1.47;0.90;;;18.80;98.20;;;;;;4934590;29;21048;-81
2024/04/07 08:17:47;;;;;;;1.50;0.90;;;18.90;98.20;;;;;;4910557;29;21030;-80
2024/04/07 08:20:14;;;;;;;1.50;0.90;;;19.10;98.20;;;;;;4934571;29;20994;-79
2024/04/07 08:22:41;;;;;;;1.50;0.90;;;19.20;98.20;;;;;;4922580;29;20483;-79
2024/04/07 08:25:21;;;;;;;1.47;0.90;;;19.30;98.20;;;;;;4933051;29;20464;-80
2024/04/07 08:27:48;;;;;;;1.50;0.90;;;19.40;98.20;;;;;;4927295;29;20499;-81
2024/04/07 08:30:17;;;;;;;1.43;0.90;;;19.40;98.20;;;;;;4925057;29;20488;-80
2024/04/07 08:32:45;;;;;;;1.43;0.90;;;19.50;98.20;;;;;;4892604;29;20498;-80
2024/04/07 08:35:11;;;;;;;1.50;0.90;;;19.60;98.20;;;;;;4914542;29;20716;-80
2024/04/07 08:37:39;;;;;;;1.50;0.90;;;19.70;98.20;;;;;;4891371;29;20561;-81
2024/04/07 08:40:07;;;;;;;1.47;0.90;;;19.90;98.20;;;;;;4910923;29;20503;-81
2024/04/07 08:42:34;;;;;;;1.50;0.90;;;20.10;97.80;;;;;;4889074;29;20896;-80
2024/04/07 08:45:02;;;;;;;1.50;0.90;;;20.20;97.90;;;;;;4912305;29;20544;-82
2024/04/07 08:47:31;;;;;;;1.50;0.90;;;20.30;97.40;;;;;;4905341;29;20650;-81
2024/04/07 08:49:57;;;;;;;1.70;1.40;;;20.40;97.00;;;;;;4912522;29;20508;-79
2024/04/07 08:52:24;;;;;;;1.50;1.00;;;20.50;97.50;;;;;;4902081;29;20500;-80
2024/04/07 08:54:50;;;;;;;1.43;0.90;;;20.80;96.40;;;;;;4911069;29;20485;-81
2024/04/07 08:57:18;;;;;;;1.50;0.90;;;21.20;95.30;;;;;;4891233;29;20549;-80
2024/04/07 08:59:47;;;;;;;1.97;1.77;;;21.50;93.30;;;;;;4908201;29;20575;-80
2024/04/07 09:02:16;;;;;;;1.50;0.90;;;21.80;92.00;;;;;;4905471;29;20480;-80
2024/04/07 09:04:43;;;;;;;1.50;0.90;;;22.10;89.60;;;;;;4917763;29;20998;-80
2024/04/07 09:07:11;;;;;;;1.47;0.90;;;22.30;88.30;;;;;;4895083;29;20584;-80
2024/04/07 09:09:38;;;;;;;1.47;0.90;;;22.50;87.50;;;;;;4911788;29;20575;-79
2024/04/07 09:12:07;;;;;;;1.50;0.90;;;22.50;85.70;;;;;;4892503;29;20493;-80
2024/04/07 09:14:34;;;;;;;1.47;0.90;;;22.40;86.00;;;;;;4902920;29;20482;-81
2024/04/07 09:17:02;;;;;;;1.50;0.90;;;22.30;85.90;;;;;;4903325;29;20484;-81
2024/04/07 09:19:30;;;;;;;1.47;0.90;;;22.20;86.70;;;;;;4907938;29;20946;-80
2024/04/07 09:22:20;;;;;;;1.47;0.90;;;22.20;86.70;;;;;;4907496;29;20484;-81
2024/04/07 09:24:46;;;;;;;1.40;0.80;;;22.20;86.80;;;;;;4911447;29;20492;-79
2024/04/07 09:27:16;;;;;;;1.47;0.90;;;22.20;87.80;;;;;;4903521;29;20477;-82
2024/04/07 09:29:41;;;;;;;1.50;0.90;;;22.20;86.20;;;;;;4911444;29;20718;-80
2024/04/07 09:32:09;;;;;;;1.50;0.90;;;22.30;85.20;;;;;;4903014;29;20499;-80
2024/04/07 09:34:36;;;;;;;1.50;0.90;;;22.30;85.60;;;;;;4911045;29;20233;-83
2024/04/07 09:37:03;;;;;;;1.43;0.90;;;22.30;86.60;;;;;;4901701;29;20484;-80
2024/04/07 09:39:31;;;;;;;1.40;0.90;;;22.40;85.10;;;;;;4910897;29;20497;-78
2024/04/07 09:41:59;;;;;;;1.43;0.90;;;22.40;84.50;;;;;;4902164;29;20584;-81
2024/04/07 09:44:33;;;;;;;1.40;0.90;;;22.40;85.70;;;;;;4915822;29;20481;-80
2024/04/07 09:47:03;;;;;;;1.47;0.87;;;22.50;86.20;;;;;;4896087;29;20481;-81
2024/04/07 09:49:35;;;;;;;1.50;0.83;;;22.60;84.60;;;;;;4912877;29;20512;-81
2024/04/07 09:52:04;;;;;;;1.50;1.00;;;22.70;84.90;;;;;;4896078;29;20489;-81
2024/04/07 09:54:40;;;;;;;1.50;0.83;;;22.80;84.60;;;;;;4906882;29;20464;-81
2024/04/07 09:57:08;;;;;;;1.43;0.90;;;22.90;83.40;;;;;;4899310;29;20808;-80
2024/04/07 09:59:36;;;;;;;1.47;0.80;;;22.90;83.40;;;;;;4910607;29;20500;-82
2024/04/07 10:02:03;;;;;;;1.50;0.90;;;23.00;83.40;;;;;;4900331;29;20591;-80
2024/04/07 10:04:31;;;;;;;1.43;0.83;;;23.20;84.10;;;;;;4908126;29;20468;-80
2024/04/07 10:06:59;;;;;;;1.77;1.40;;;23.40;82.90;;;;;;4895330;29;20508;-81
2024/04/07 10:09:26;;;;;;;1.43;0.90;;;23.60;82.00;;;;;;4906797;29;20555;-80
2024/04/07 10:11:54;;;;;;;1.43;0.90;;;23.70;80.40;;;;;;4904710;29;20741;-80
2024/04/07 10:14:22;;;;;;;1.50;0.90;;;23.70;80.30;;;;;;4911107;29;20512;-80
2024/04/07 10:16:50;;;;;;;1.50;1.00;;;23.70;80.60;;;;;;4893735;29;20555;-78
2024/04/07 10:19:18;;;;;;;1.47;0.83;;;23.70;81.60;;;;;;4902334;29;20516;-81
2024/04/07 10:21:45;;;;;;;1.43;0.90;;;23.50;80.50;;;;;;4888594;29;20477;-81
2024/04/07 10:24:12;;;;;;;1.47;0.90;;;23.40;82.00;;;;;;4907155;29;21075;-80
2024/04/07 10:26:38;;;;;;;1.50;0.90;;;23.30;80.20;;;;;;4900744;29;20488;-79
2024/04/07 10:29:08;;;;;;;1.43;0.87;;;23.20;81.00;;;;;;4909914;29;20473;-80
2024/04/07 10:31:37;;;;;;;1.43;0.80;;;23.10;80.90;;;;;;4897106;29;20256;-80
2024/04/07 10:34:04;;;;;;;1.43;0.90;;;23.00;81.50;;;;;;4908690;29;20483;-81
2024/04/07 10:36:33;;;;;;;1.43;0.80;;;23.00;81.90;;;;;;4904607;29;20865;-80
2024/04/07 10:39:02;;;;;;;1.43;0.87;;;22.90;80.80;;;;;;4913059;29;21064;-80
2024/04/07 10:41:30;;;;;;;1.43;0.83;;;22.90;82.20;;;;;;4895336;29;20578;-82
2024/04/07 10:43:57;;;;;;;1.40;0.87;;;22.80;81.70;;;;;;4903783;29;21831;-80
2024/04/07 10:46:25;;;;;;;1.40;0.90;;;22.90;81.30;;;;;;4905258;29;20507;-81
2024/04/07 10:48:53;;;;;;;1.50;0.90;;;23.00;82.00;;;;;;4913288;29;20924;-80
2024/04/07 10:51:20;;;;;;;1.47;0.80;;;23.10;80.70;;;;;;4901491;29;20742;-81
2024/04/07 10:53:56;;;;;;;1.43;0.80;;;23.30;81.30;;;;;;4905512;29;20472;-80
2024/04/07 10:56:22;;;;;;;1.50;0.83;;;23.50;80.70;;;;;;4905739;29;20492;-81
2024/04/07 10:58:49;;;;;;;1.47;0.83;;;23.70;81.30;;;;;;4914339;29;20525;-80
2024/04/07 11:01:15;;;;;;;1.43;0.90;;;23.80;79.80;;;;;;4904035;29;20232;-79
2024/04/07 11:03:44;;;;;;;1.47;0.80;;;23.90;79.80;;;;;;4902374;29;20561;-80
2024/04/07 11:06:10;;;;;;;1.47;0.80;;;24.00;77.20;;;;;;4903895;29;20512;-80
2024/04/07 11:08:37;;;;;;;1.50;0.90;;;24.00;77.80;;;;;;4915361;29;20570;-81
2024/04/07 11:11:03;;;;;;;1.47;0.80;;;24.00;77.40;;;;;;4905943;29;20495;-79
2024/04/07 11:13:31;;;;;;;1.47;0.83;;;23.90;78.10;;;;;;4913051;29;20536;-80
2024/04/07 11:15:58;;;;;;;1.50;0.90;;;23.80;77.90;;;;;;4910317;29;20472;-82
2024/04/07 11:18:25;;;;;;;1.43;0.83;;;23.90;77.80;;;;;;4925051;29;20507;-79
2024/04/07 11:20:53;;;;;;;1.47;0.87;;;24.00;78.10;;;;;;4914999;29;20575;-81
2024/04/07 11:23:21;;;;;;;1.43;0.80;;;24.00;77.70;;;;;;4924007;29;20536;-79
2024/04/07 11:25:47;;;;;;;1.47;0.83;;;24.00;77.00;;;;;;4914680;29;20477;-81
2024/04/07 11:28:15;;;;;;;1.47;0.83;;;24.00;76.50;;;;;;4927401;29;20535;-80
2024/04/07 11:30:49;;;;;;;1.50;0.90;;;24.10;76.80;;;;;;4926080;29;20481;-81
2024/04/07 11:33:15;;;;;;;1.47;0.90;;;24.20;77.20;;;;;;4902782;29;20799;-79
2024/04/07 11:35:44;;;;;;;1.47;0.83;;;24.10;75.20;;;;;;4919903;29;20528;-80
2024/04/07 11:38:12;;;;;;;1.50;0.90;;;24.20;75.80;;;;;;4911099;29;20504;-80
2024/04/07 11:40:39;;;;;;;1.47;0.83;;;24.10;75.10;;;;;;4922804;29;20591;-81
2024/04/07 11:43:06;;;;;;;1.43;0.80;;;24.00;75.60;;;;;;4913803;29;20464;-78
2024/04/07 11:45:33;;;;;;;1.43;0.80;;;24.10;76.30;;;;;;4922354;29;20472;-81
2024/04/07 11:48:00;;;;;;;1.47;0.90;;;24.20;75.00;;;;;;4913468;29;21024;-81
2024/04/07 11:50:27;;;;;;;1.47;0.87;;;24.20;76.00;;;;;;4925686;29;20489;-81
2024/04/07 11:52:53;;;;;;;1.50;0.90;;;24.30;76.60;;;;;;4896060;29;20721;-80
2024/04/07 11:55:22;;;;;;;1.50;0.80;;;24.50;76.80;;;;;;4922766;29;20452;-80
2024/04/07 11:57:48;;;;;;;1.47;0.80;;;24.70;75.00;;;;;;4901292;29;20547;-80
2024/04/07 12:00:15;;;;;;;1.47;0.90;;;24.90;75.20;;;;;;4927565;29;20495;-81
2024/04/07 12:02:44;;;;;;;1.50;0.87;;;25.20;75.40;;;;;;4915002;29;20565;-81
2024/04/07 12:05:13;;;;;;;1.50;0.80;;;25.40;74.50;;;;;;4925703;29;20468;-80
2024/04/07 12:07:39;;;;;;;1.50;0.90;;;25.60;75.50;;;;;;4912402;29;20996;-80
2024/04/07 12:10:10;;;;;;;1.43;0.80;;;25.70;74.00;;;;;;4925301;29;20616;-81
2024/04/07 12:12:38;;;;;;;1.47;0.87;;;25.70;73.40;;;;;;4909794;29;20485;-80
2024/04/07 12:15:05;;;;;;;1.43;0.80;;;25.80;74.10;;;;;;4926567;29;20468;-81
2024/04/07 12:17:32;;;;;;;1.47;0.90;;;25.90;73.60;;;;;;4915281;29;20484;-77
2024/04/07 12:20:01;;;;;;;1.50;0.90;;;26.00;73.50;;;;;;4925740;29;20484;-80
2024/04/07 12:22:38;;;;;;;1.40;0.90;;;26.00;73.80;;;;;;4903742;29;20509;-80
2024/04/07 12:25:06;;;;;;;1.43;0.80;;;26.00;73.50;;;;;;4925797;29;20523;-81
2024/04/07 12:27:32;;;;;;;1.47;0.80;;;25.90;74.30;;;;;;4912765;29;20572;-78
2024/04/07 12:30:00;;;;;;;1.47;0.80;;;26.10;74.70;;;;;;4927085;29;20511;-80
2024/04/07 12:32:26;;;;;;;1.50;0.80;;;26.40;73.30;;;;;;4904195;29;20585;-80
2024/04/07 12:34:54;;;;;;;1.47;0.80;;;26.70;74.50;;;;;;4920217;29;20539;-79
2024/04/07 12:37:20;;;;;;;1.47;0.90;;;27.00;73.50;;;;;;4905962;29;20490;-80
2024/04/07 12:39:48;;;;;;;1.47;0.90;;;27.10;72.80;;;;;;4922230;29;20709;-80
2024/04/07 12:42:14;;;;;;;1.50;0.80;;;27.00;71.80;;;;;;4916528;29;20547;-78
2024/04/07 12:44:45;;;;;;;1.40;0.80;;;26.80;72.40;;;;;;4924013;29;20842;-80
2024/04/07 12:47:20;;;;;;;1.50;0.80;;;26.70;71.90;;;;;;4903502;29;20491;-79
2024/04/07 12:49:47;;;;;;;1.47;0.80;;;26.60;73.30;;;;;;4921417;29;20488;-80
2024/04/07 12:52:14;;;;;;;1.40;0.80;;;26.70;72.90;;;;;;4916844;29;20547;-80
2024/04/07 12:54:41;;;;;;;1.50;0.80;;;26.80;72.00;;;;;;4922888;29;20465;-80
2024/04/07 12:57:08;;;;;;;1.50;0.80;;;26.70;72.60;;;;;;4898161;29;20484;-79
2024/04/07 12:59:36;;;;;;;1.50;0.90;;;26.70;71.80;;;;;;4915089;29;20492;-80